Time;durP1;ratioP1;P1;durP2;ratioP2;P2;SDS_P1;SDS_P2;PMS_P1;PMS_P2;Temp;Humidity;BMP_temperature;BMP_pressure;BME280_temperature;BME280_humidity;BME280_pressure;Samples;Min_cycle;Max_cycle;Signal;HPM_P1;HPM_P2
2022/03/13 00:00:46;;;;;;;;;;;;;;;21.37;28.58;102039.74;103860;1316;62498;-83
2022/03/13 00:03:38;;;;;;;;;;;;;;;21.37;28.51;102036.75;104073;1316;73729;-84
2022/03/13 00:06:14;;;;;;;;;;;;;;;21.37;28.46;102039.75;103053;1323;75444;-86
2022/03/13 00:08:58;;;;;;;;;;;;;;;21.38;28.39;102038.27;103100;1323;62441;-82
2022/03/13 00:11:32;;;;;;;;;;;;;;;21.38;28.43;102035.40;103036;1323;62047;-83
2022/03/13 00:14:09;;;;;;;;;;;;;;;21.38;28.45;102032.86;103094;1323;72709;-86
2022/03/13 00:16:45;;;;;;;;;;;;;;;21.37;28.49;102024.52;103048;1323;76492;-86
2022/03/13 00:19:21;;;;;;;;;;;;;;;21.37;28.34;102025.95;103106;1322;62113;-85
2022/03/13 00:22:04;;;;;;;;;;;;;;;21.37;28.37;102022.73;103012;1324;62117;-82
2022/03/13 00:24:36;;;;;;;;;;;;;;;21.38;28.41;102019.83;103088;1322;74752;-82
2022/03/13 00:27:20;;;;;;;;;;;;;;;;;;;;;
2022/03/13 00:29:49;;;;;;;;;;;;;;;21.38;28.58;102019.11;103846;1316;62535;-84
2022/03/13 00:32:50;;;;;;;;;;;;;;;21.38;28.49;102016.77;103843;1317;62137;-85
2022/03/13 00:35:26;;;;;;;;;;;;;;;;;;;;;
2022/03/13 00:38:05;;;;;;;;;;;;;;;;;;;;;
2022/03/13 00:40:57;;;;;;;;;;;;;;;21.38;28.45;102008.20;103982;1317;62020;-82
2022/03/13 00:43:23;;;;;;;;;;;;;;;21.38;28.40;102008.89;104143;1308;61958;-81
2022/03/13 00:46:07;;;;;;;;;;;;;;;21.38;28.36;102004.79;104499;1308;73015;-82
2022/03/13 00:48:36;;;;;;;;;;;;;;;21.38;28.34;102003.31;104441;1311;75341;-82
2022/03/13 00:51:31;;;;;;;;;;;;;;;21.39;28.62;102002.20;104252;1310;62224;-82
2022/03/13 00:53:58;;;;;;;;;;;;;;;21.39;28.39;101999.89;104426;1311;62080;-82
2022/03/13 00:56:45;;;;;;;;;;;;;;;21.38;28.40;101995.82;104345;1311;73035;-85
2022/03/13 00:59:19;;;;;;;;;;;;;;;21.38;28.50;101990.78;104332;1311;76559;-84
2022/03/13 01:01:45;;;;;;;;;;;;;;;21.38;28.48;101989.54;104391;1311;62038;-83
2022/03/13 01:04:48;;;;;;;;;;;;;;;21.38;28.55;101990.96;104404;1310;62111;-82
2022/03/13 01:07:18;;;;;;;;;;;;;;;21.39;28.55;101985.55;104454;1311;74144;-82
2022/03/13 01:10:02;;;;;;;;;;;;;;;21.39;28.43;101986.09;104340;1311;76452;-82
2022/03/13 01:12:39;;;;;;;;;;;;;;;21.39;28.44;101988.07;104470;1311;62090;-84
2022/03/13 01:15:12;;;;;;;;;;;;;;;21.39;28.39;101981.80;104413;1311;63215;-79
2022/03/13 01:17:48;;;;;;;;;;;;;;;;;;;;;
2022/03/13 01:20:28;;;;;;;;;;;;;;;21.39;28.48;101982.67;104224;1314;75616;-85
2022/03/13 01:22:58;;;;;;;;;;;;;;;21.40;28.65;101978.88;104255;1314;61891;-81
2022/03/13 01:25:53;;;;;;;;;;;;;;;21.39;28.49;101976.05;104269;1314;62253;-81
2022/03/13 01:28:24;;;;;;;;;;;;;;;21.40;28.52;101972.63;104221;1314;73744;-84
2022/03/13 01:31:07;;;;;;;;;;;;;;;21.40;28.48;101966.89;104234;1314;75721;-80
2022/03/13 01:33:49;;;;;;;;;;;;;;;21.40;28.35;101964.03;104289;1314;61948;-86
2022/03/13 01:36:23;;;;;;;;;;;;;;;21.40;28.49;101963.13;104220;1313;62006;-85
2022/03/13 01:39:02;;;;;;;;;;;;;;;21.40;28.26;101961.13;104258;1314;73268;-82
2022/03/13 01:41:36;;;;;;;;;;;;;;;21.40;28.44;101955.41;104279;1314;75597;-85
2022/03/13 01:44:14;;;;;;;;;;;;;;;21.40;28.49;101957.95;104291;1314;62081;-82
2022/03/13 01:46:52;;;;;;;;;;;;;;;21.40;28.61;101956.86;104227;1312;62027;-84
2022/03/13 01:49:27;;;;;;;;;;;;;;;21.39;28.43;101950.79;104132;1313;73144;-83
2022/03/13 01:51:53;;;;;;;;;;;;;;;21.40;28.59;101949.14;104310;1313;76963;-85
2022/03/13 01:54:24;;;;;;;;;;;;;;;21.40;28.44;101950.41;104320;1312;62094;-87
2022/03/13 01:56:50;;;;;;;;;;;;;;;21.40;28.52;101950.74;104437;1308;62094;-81
2022/03/13 01:59:41;;;;;;;;;;;;;;;21.40;28.30;101949.66;104483;1308;70547;-87
2022/03/13 02:02:47;;;;;;;;;;;;;;;21.40;28.30;101948.41;104267;1315;76946;-86
2022/03/13 02:05:34;;;;;;;;;;;;;;;21.41;28.54;101950.17;103428;1319;62145;-83
2022/03/13 02:08:10;;;;;;;;;;;;;;;21.41;28.49;101946.58;103376;1318;62206;-84
2022/03/13 02:11:15;;;;;;;;;;;;;;;;;;;;;
2022/03/13 02:13:46;;;;;;;;;;;;;;;21.41;28.24;101943.55;103355;1320;75442;-83
2022/03/13 02:16:31;;;;;;;;;;;;;;;21.41;28.52;101949.45;103367;1320;61971;-82
2022/03/13 02:19:28;;;;;;;;;;;;;;;21.41;28.42;101945.70;103363;1320;62326;-83
2022/03/13 02:22:14;;;;;;;;;;;;;;;21.41;28.52;101944.61;103446;1320;73775;-83
2022/03/13 02:24:53;;;;;;;;;;;;;;;21.41;28.60;101948.18;103343;1320;75550;-84
2022/03/13 02:27:38;;;;;;;;;;;;;;;21.42;28.44;101951.39;103449;1318;62055;-81
2022/03/13 02:30:43;;;;;;;;;;;;;;;21.42;28.54;101950.31;102724;1329;62168;-83
2022/03/13 02:33:19;;;;;;;;;;;;;;;21.42;28.50;101952.82;102717;1326;72810;-85
2022/03/13 02:36:08;;;;;;;;;;;;;;;21.42;28.40;101956.73;102732;1327;76668;-85
2022/03/13 02:38:44;;;;;;;;;;;;;;;21.43;28.38;101956.87;102583;1329;62107;-84
2022/03/13 02:41:27;;;;;;;;;;;;;;;21.43;28.36;101954.91;102996;1325;62036;-82
2022/03/13 02:44:04;;;;;;;;;;;;;;;21.43;28.47;101958.65;103776;1317;74000;-84
2022/03/13 02:47:08;;;;;;;;;;;;;;;21.43;28.35;101957.75;103808;1317;77270;-84
2022/03/13 02:50:02;;;;;;;;;;;;;;;21.43;28.41;101955.43;103203;1322;61992;-83
2022/03/13 02:52:46;;;;;;;;;;;;;;;;;;;;;
2022/03/13 02:55:17;;;;;;;;;;;;;;;21.43;28.39;101954.18;103235;1322;74385;-84
2022/03/13 02:57:52;;;;;;;;;;;;;;;21.43;28.39;101954.17;103146;1323;75598;-83
2022/03/13 03:00:41;;;;;;;;;;;;;;;21.43;28.33;101956.30;103175;1322;62138;-84
2022/03/13 03:03:27;;;;;;;;;;;;;;;21.42;28.43;101956.00;103151;1322;62122;-85
2022/03/13 03:06:01;;;;;;;;;;;;;;;21.43;28.36;101958.64;103170;1322;73779;-83
2022/03/13 03:08:37;;;;;;;;;;;;;;;;;;;;;
2022/03/13 03:11:14;;;;;;;;;;;;;;;21.43;28.38;101959.89;103967;1316;62138;-82
2022/03/13 03:14:17;;;;;;;;;;;;;;;21.43;28.36;101959.01;103964;1315;61949;-85
2022/03/13 03:16:54;;;;;;;;;;;;;;;21.43;28.35;101961.34;103859;1317;73825;-84
2022/03/13 03:19:31;;;;;;;;;;;;;;;21.43;28.50;101957.75;103834;1317;76870;-81
2022/03/13 03:22:21;;;;;;;;;;;;;;;21.44;28.36;101954.32;104445;1311;62078;-84
2022/03/13 03:24:58;;;;;;;;;;;;;;;21.44;28.22;101952.70;103875;1317;62083;-83
2022/03/13 03:27:31;;;;;;;;;;;;;;;21.44;28.39;101951.80;103629;1318;72677;-84
2022/03/13 03:30:18;;;;;;;;;;;;;;;21.44;28.35;101948.03;103693;1317;76596;-86
2022/03/13 03:32:44;;;;;;;;;;;;;;;21.44;28.43;101944.11;103692;1317;62030;-82
2022/03/13 03:35:25;;;;;;;;;;;;;;;21.43;28.39;101944.85;103463;1318;61978;-84
2022/03/13 03:37:51;;;;;;;;;;;;;;;21.44;28.37;101942.31;103675;1317;74051;-87
2022/03/13 03:40:35;;;;;;;;;;;;;;;21.44;28.41;101940.87;103583;1317;76784;-82
2022/03/13 03:43:02;;;;;;;;;;;;;;;21.44;28.40;101941.77;103881;1317;62088;-80
2022/03/13 03:45:40;;;;;;;;;;;;;;;21.43;28.33;101944.30;103695;1317;63368;-84
2022/03/13 03:48:26;;;;;;;;;;;;;;;21.44;28.45;101942.50;103736;1316;72719;-82
2022/03/13 03:51:00;;;;;;;;;;;;;;;21.43;28.43;101937.14;103879;1316;75563;-83
2022/03/13 03:53:37;;;;;;;;;;;;;;;21.44;28.49;101940.70;103868;1317;62037;-82
2022/03/13 03:56:10;;;;;;;;;;;;;;;21.44;28.42;101941.23;103833;1317;62142;-83
2022/03/13 03:58:41;;;;;;;;;;;;;;;21.44;28.24;101941.78;103865;1316;73589;-86
2022/03/13 04:01:15;;;;;;;;;;;;;;;21.43;28.36;101939.48;103871;1317;76637;-83
2022/03/13 04:03:50;;;;;;;;;;;;;;;21.43;28.54;101939.30;104462;1311;61993;-88
2022/03/13 04:06:16;;;;;;;;;;;;;;;21.43;28.45;101946.28;104452;1311;62021;-84
2022/03/13 04:09:08;;;;;;;;;;;;;;;21.44;28.46;101946.97;104419;1311;72774;-82
2022/03/13 04:11:43;;;;;;;;;;;;;;;21.45;28.50;101949.44;104411;1311;75789;-86
2022/03/13 04:14:09;;;;;;;;;;;;;;;21.45;28.31;101949.80;104402;1311;62018;-84
2022/03/13 04:16:53;;;;;;;;;;;;;;;21.45;28.47;101948.73;104434;1311;61979;-83
2022/03/13 04:19:20;;;;;;;;;;;;;;;21.45;28.50;101945.70;104330;1311;73899;-84
2022/03/13 04:22:13;;;;;;;;;;;;;;;21.44;28.48;101939.80;104493;1310;76678;-82
2022/03/13 04:24:42;;;;;;;;;;;;;;;21.45;28.65;101941.20;104441;1311;61937;-80
2022/03/13 04:27:39;;;;;;;;;;;;;;;21.45;28.44;101939.42;104455;1310;61950;-83
2022/03/13 04:30:08;;;;;;;;;;;;;;;21.45;28.50;101939.93;104437;1310;74059;-84
2022/03/13 04:32:35;;;;;;;;;;;;;;;21.45;28.40;101942.96;104428;1311;76345;-79
2022/03/13 04:35:06;;;;;;;;;;;;;;;21.45;28.44;101941.73;104505;1310;61999;-87
2022/03/13 04:37:40;;;;;;;;;;;;;;;21.45;28.49;101945.11;104425;1310;62064;-83
2022/03/13 04:40:15;;;;;;;;;;;;;;;21.45;28.57;101944.06;104426;1311;62731;-83
2022/03/13 04:43:13;;;;;;;;;;;;;;;;;;;;;
2022/03/13 04:45:35;;;;;;;;;;;;;;;21.45;28.41;101947.61;104428;1311;61980;-83
2022/03/13 04:48:46;;;;;;;;;;;;;;;21.45;28.54;101954.98;104467;1309;62195;-82
2022/03/13 04:51:07;;;;;;;;;;;;;;;21.45;28.42;101968.41;104483;1308;72888;-83
2022/03/13 04:53:35;;;;;;;;;;;;;;;21.45;28.40;101957.85;104496;1308;76538;-82
2022/03/13 04:56:03;;;;;;;;;;;;;;;21.46;28.36;101966.59;104435;1309;61977;-81
2022/03/13 04:58:50;;;;;;;;;;;;;;;21.46;28.30;101967.84;104195;1314;62121;-84
2022/03/13 05:01:34;;;;;;;;;;;;;;;;;;;;;
2022/03/13 05:04:07;;;;;;;;;;;;;;;21.46;28.52;101971.23;104175;1314;75484;-84
2022/03/13 05:07:01;;;;;;;;;;;;;;;21.46;28.56;101973.17;104222;1314;62112;-84
2022/03/13 05:09:32;;;;;;;;;;;;;;;21.46;28.27;101972.27;104200;1315;62416;-83
2022/03/13 05:12:39;;;;;;;;;;;;;;;21.47;28.28;101973.34;104180;1314;74247;-82
2022/03/13 05:15:20;;;;;;;;;;;;;;;21.48;28.58;101979.73;104179;1314;75700;-82
2022/03/13 05:17:56;;;;;;;;;;;;;;;21.47;28.36;101977.76;104184;1315;62295;-79
2022/03/13 05:20:25;;;;;;;;;;;;;;;21.48;28.42;101978.80;104221;1314;62100;-83
2022/03/13 05:23:17;;;;;;;;;;;;;;;21.48;28.35;101980.77;104056;1314;71484;-82
2022/03/13 05:25:46;;;;;;;;;;;;;;;21.49;28.33;101982.00;104069;1315;75958;-82
2022/03/13 05:28:34;;;;;;;;;;;;;;;21.49;28.37;101985.40;104088;1315;61993;-86
2022/03/13 05:31:03;;;;;;;;;;;;;;;21.50;28.37;101988.04;104205;1314;62367;-84
2022/03/13 05:33:33;;;;;;;;;;;;;;;21.50;28.57;101993.04;104048;1314;73947;-80
2022/03/13 05:36:31;;;;;;;;;;;;;;;;;;;;;
2022/03/13 05:39:07;;;;;;;;;;;;;;;21.51;28.38;101990.86;104510;1308;61859;-82
2022/03/13 05:41:49;;;;;;;;;;;;;;;21.50;28.44;101991.59;104453;1308;62506;-82
2022/03/13 05:44:23;;;;;;;;;;;;;;;21.51;28.51;101994.42;104507;1308;72849;-81
2022/03/13 05:47:05;;;;;;;;;;;;;;;;;;;;;
2022/03/13 05:49:38;;;;;;;;;;;;;;;21.51;28.40;101995.10;104535;1308;62072;-83
2022/03/13 05:52:13;;;;;;;;;;;;;;;21.51;28.46;101999.05;104451;1309;62082;-84
2022/03/13 05:54:42;;;;;;;;;;;;;;;21.52;28.50;101997.42;104461;1309;72809;-79
2022/03/13 05:57:33;;;;;;;;;;;;;;;21.52;28.39;101998.28;104381;1309;73462;-83
2022/03/13 06:00:21;;;;;;;;;;;;;;;21.53;28.33;102001.30;104516;1308;62094;-81
2022/03/13 06:02:56;;;;;;;;;;;;;;;21.53;28.49;102002.74;104529;1309;62108;-86
2022/03/13 06:05:21;;;;;;;;;;;;;;;21.53;28.52;102005.60;104499;1308;72639;-85
2022/03/13 06:07:58;;;;;;;;;;;;;;;21.53;28.52;102006.85;104414;1309;62177;-82
2022/03/13 06:10:26;;;;;;;;;;;;;;;21.54;28.59;102007.52;104451;1309;62398;-87
2022/03/13 06:13:08;;;;;;;;;;;;;;;21.54;28.52;102011.48;104439;1309;61959;-83
2022/03/13 06:15:53;;;;;;;;;;;;;;;21.54;28.65;102010.39;104457;1309;72920;-83
2022/03/13 06:18:28;;;;;;;;;;;;;;;21.55;28.47;102009.30;104410;1309;76655;-84
2022/03/13 06:21:05;;;;;;;;;;;;;;;21.55;28.50;102006.40;104526;1308;62090;-82
2022/03/13 06:23:37;;;;;;;;;;;;;;;21.56;28.44;102013.70;104534;1308;62209;-85
2022/03/13 06:26:34;;;;;;;;;;;;;;;21.56;28.56;102018.54;104439;1309;70465;-83
2022/03/13 06:29:13;;;;;;;;;;;;;;;21.56;28.60;102020.13;104390;1311;76541;-87
2022/03/13 06:32:03;;;;;;;;;;;;;;;21.56;28.50;102017.10;104427;1310;62205;-81
2022/03/13 06:34:27;;;;;;;;;;;;;;;21.56;28.36;102015.66;104466;1309;62139;-83
2022/03/13 06:37:13;;;;;;;;;;;;;;;;;;;;;
2022/03/13 06:39:55;;;;;;;;;;;;;;;21.56;28.49;102020.48;104295;1313;76778;-86
2022/03/13 06:42:37;;;;;;;;;;;;;;;21.56;28.38;102015.82;104213;1313;61983;-84
2022/03/13 06:45:13;;;;;;;;;;;;;;;21.57;28.11;102021.71;104325;1313;62092;-89
2022/03/13 06:48:21;;;;;;;;;;;;;;;21.57;28.54;102023.86;103716;1314;657910;-83
2022/03/13 06:50:53;;;;;;;;;;;;;;;21.57;28.50;102026.71;104205;1314;76268;-83
2022/03/13 06:53:35;;;;;;;;;;;;;;;21.57;28.40;102019.55;104231;1315;62034;-86
2022/03/13 06:56:19;;;;;;;;;;;;;;;21.57;28.32;102028.31;104216;1314;62106;-83
2022/03/13 06:59:07;;;;;;;;;;;;;;;21.57;28.37;102029.59;104196;1314;72901;-84
2022/03/13 07:01:42;;;;;;;;;;;;;;;21.57;28.28;102025.46;104243;1313;76686;-83
2022/03/13 07:04:15;;;;;;;;;;;;;;;21.57;28.46;102026.34;104256;1314;61856;-82
2022/03/13 07:06:41;;;;;;;;;;;;;;;21.58;28.33;102028.84;104206;1315;62195;-83
2022/03/13 07:09:15;;;;;;;;;;;;;;;21.58;28.26;102026.51;104268;1313;62828;-83
2022/03/13 07:11:49;;;;;;;;;;;;;;;21.58;28.63;102027.35;104416;1311;76821;-84
2022/03/13 07:14:37;;;;;;;;;;;;;;;;;;;;;
2022/03/13 07:17:03;;;;;;;;;;;;;;;21.57;28.25;102022.21;104511;1310;62268;-81
2022/03/13 07:19:46;;;;;;;;;;;;;;;21.57;28.18;102025.83;104414;1310;62114;-83
2022/03/13 07:22:12;;;;;;;;;;;;;;;21.58;28.27;102030.44;104308;1312;74439;-84
2022/03/13 07:24:51;;;;;;;;;;;;;;;21.57;28.40;102031.54;104517;1308;62136;-84
2022/03/13 07:27:25;;;;;;;;;;;;;;;21.58;28.58;102029.90;104533;1307;61976;-83
2022/03/13 07:30:01;;;;;;;;;;;;;;;21.58;28.37;102028.08;104516;1308;72872;-84
2022/03/13 07:32:40;;;;;;;;;;;;;;;;;;;;;
2022/03/13 07:35:10;;;;;;;;;;;;;;;21.59;28.49;102028.39;104517;1308;61969;-83
2022/03/13 07:37:38;;;;;;;;;;;;;;;21.58;28.36;102027.16;104528;1309;62058;-85
2022/03/13 07:40:25;;;;;;;;;;;;;;;21.59;28.38;102025.00;104500;1310;72838;-84
2022/03/13 07:43:02;;;;;;;;;;;;;;;21.59;28.30;102026.44;104332;1311;76688;-79
2022/03/13 07:45:30;;;;;;;;;;;;;;;21.59;28.29;102024.45;104501;1309;62121;-84
2022/03/13 07:48:09;;;;;;;;;;;;;;;21.60;28.45;102023.33;104424;1311;62040;-82
2022/03/13 07:50:38;;;;;;;;;;;;;;;21.61;28.33;102023.27;104508;1308;73247;-82
2022/03/13 07:53:18;;;;;;;;;;;;;;;21.62;28.41;102024.86;104429;1308;75559;-82
2022/03/13 07:55:55;;;;;;;;;;;;;;;21.62;28.29;102023.60;104442;1311;61957;-83
2022/03/13 07:58:32;;;;;;;;;;;;;;;21.63;28.32;102027.65;104476;1309;62166;-81
2022/03/13 08:01:05;;;;;;;;;;;;;;;21.64;28.36;102030.31;104533;1308;72923;-83
2022/03/13 08:03:48;;;;;;;;;;;;;;;21.64;28.48;102027.23;104409;1308;75655;-84
2022/03/13 08:06:14;;;;;;;;;;;;;;;21.64;28.29;102025.99;104525;1308;61992;-86
2022/03/13 08:09:04;;;;;;;;;;;;;;;21.64;28.32;102026.50;104531;1308;62093;-83
2022/03/13 08:11:33;;;;;;;;;;;;;;;21.65;28.46;102026.10;104529;1308;73908;-79
2022/03/13 08:14:29;;;;;;;;;;;;;;;21.66;28.50;102027.31;104474;1307;74727;-84
2022/03/13 08:17:02;;;;;;;;;;;;;;;21.67;28.35;102027.11;104462;1309;62146;-86
2022/03/13 08:19:48;;;;;;;;;;;;;;;21.67;28.39;102030.50;104460;1309;62184;-85
2022/03/13 08:22:21;;;;;;;;;;;;;;;21.67;28.49;102031.02;104514;1308;72722;-83
2022/03/13 08:24:56;;;;;;;;;;;;;;;21.67;28.53;102031.73;104501;1308;76747;-84
2022/03/13 08:27:36;;;;;;;;;;;;;;;;;;;;;
2022/03/13 08:30:11;;;;;;;;;;;;;;;21.68;28.38;102034.02;104463;1308;62124;-82
2022/03/13 08:32:50;;;;;;;;;;;;;;;21.68;28.40;102036.31;104442;1308;73306;-81
2022/03/13 08:35:26;;;;;;;;;;;;;;;21.69;28.53;102037.91;104496;1308;76635;-84
2022/03/13 08:37:55;;;;;;;;;;;;;;;21.69;28.42;102036.30;104437;1309;62094;-84
2022/03/13 08:40:21;;;;;;;;;;;;;;;21.69;28.54;102036.48;104429;1308;62210;-84
2022/03/13 08:42:54;;;;;;;;;;;;;;;21.69;28.43;102032.54;104438;1309;62177;-82
2022/03/13 08:45:22;;;;;;;;;;;;;;;21.69;28.40;102031.08;104438;1309;75620;-82
2022/03/13 08:48:08;;;;;;;;;;;;;;;21.70;28.38;102038.02;104465;1309;62046;-84
2022/03/13 08:50:36;;;;;;;;;;;;;;;21.71;28.52;102040.86;104240;1310;62029;-84
2022/03/13 08:53:22;;;;;;;;;;;;;;;21.71;28.47;102038.33;104431;1308;73252;-83
2022/03/13 08:55:52;;;;;;;;;;;;;;;21.71;28.63;102041.73;104511;1308;76382;-83
2022/03/13 08:58:30;;;;;;;;;;;;;;;21.72;28.48;102042.95;104509;1308;62098;-83
2022/03/13 09:01:07;;;;;;;;;;;;;;;;;;;;;
2022/03/13 09:03:36;;;;;;;;;;;;;;;21.73;28.55;102038.91;104509;1308;73937;-83
2022/03/13 09:06:04;;;;;;;;;;;;;;;21.74;28.46;102042.98;104415;1309;76808;-79
2022/03/13 09:08:50;;;;;;;;;;;;;;;21.75;28.47;102044.92;104405;1309;63711;-83
2022/03/13 09:11:23;;;;;;;;;;;;;;;21.76;28.50;102039.30;104449;1309;61987;-83
2022/03/13 09:13:56;;;;;;;;;;;;;;;21.77;28.59;102042.30;104531;1308;73909;-86
2022/03/13 09:16:52;;;;;;;;;;;;;;;21.78;28.40;102037.42;104478;1308;76626;-84
2022/03/13 09:19:28;;;;;;;;;;;;;;;21.79;28.32;102036.46;104515;1308;62558;-82
2022/03/13 09:21:56;;;;;;;;;;;;;;;21.80;28.43;102037.67;104447;1309;61967;-84
2022/03/13 09:24:41;;;;;;;;;;;;;;;21.82;28.40;102035.95;104446;1309;72815;-88
2022/03/13 09:27:17;;;;;;;;;;;;;;;21.83;28.41;102036.92;104430;1308;75511;-86
2022/03/13 09:30:05;;;;;;;;;;;;;;;21.84;28.32;102032.95;104461;1308;62009;-85
2022/03/13 09:32:41;;;;;;;;;;;;;;;21.85;28.38;102031.66;104401;1308;62101;-82
2022/03/13 09:35:18;;;;;;;;;;;;;;;21.88;28.30;102034.52;104500;1308;73764;-82
2022/03/13 09:37:59;;;;;;;;;;;;;;;21.89;28.40;102028.75;104503;1308;75755;-83
2022/03/13 09:40:37;;;;;;;;;;;;;;;;;;;;;
2022/03/13 09:43:16;;;;;;;;;;;;;;;;;;;;;
2022/03/13 09:46:05;;;;;;;;;;;;;;;21.94;28.47;102026.50;104524;1308;73942;-83
2022/03/13 09:48:40;;;;;;;;;;;;;;;21.95;28.45;102018.18;104531;1308;76575;-85
2022/03/13 09:51:13;;;;;;;;;;;;;;;21.97;28.22;102018.96;104457;1308;61950;-81
2022/03/13 09:54:01;;;;;;;;;;;;;;;21.99;28.36;102016.93;104419;1309;63294;-83
2022/03/13 09:56:39;;;;;;;;;;;;;;;22.00;28.29;102014.87;104532;1308;73845;-83
2022/03/13 09:59:08;;;;;;;;;;;;;;;22.02;28.49;102017.65;104503;1308;75891;-83
2022/03/13 10:01:49;;;;;;;;;;;;;;;22.03;28.37;102014.73;104436;1310;62104;-86
2022/03/13 10:04:18;;;;;;;;;;;;;;;22.04;28.15;102011.77;104528;1308;62076;-84
2022/03/13 10:07:04;;;;;;;;;;;;;;;22.05;28.30;102015.11;104511;1308;73858;-84
2022/03/13 10:09:40;;;;;;;;;;;;;;;22.06;28.33;102016.13;104066;1317;75483;-82
2022/03/13 10:12:12;;;;;;;;;;;;;;;22.07;28.43;102012.31;104001;1317;61957;-81
2022/03/13 10:14:39;;;;;;;;;;;;;;;22.08;28.39;102014.20;103859;1317;62013;-83
2022/03/13 10:17:21;;;;;;;;;;;;;;;22.09;28.38;102007.51;103855;1317;73309;-83
2022/03/13 10:19:47;;;;;;;;;;;;;;;22.11;28.29;102010.67;103831;1317;75326;-80
2022/03/13 10:22:18;;;;;;;;;;;;;;;22.12;28.13;102009.73;104112;1317;62076;-84
2022/03/13 10:24:51;;;;;;;;;;;;;;;22.12;28.23;102008.27;103845;1317;62582;-83
2022/03/13 10:27:25;;;;;;;;;;;;;;;22.13;28.21;102002.34;103863;1317;74133;-83
2022/03/13 10:29:50;;;;;;;;;;;;;;;22.12;28.32;102003.06;103836;1317;75805;-79
2022/03/13 10:32:29;;;;;;;;;;;;;;;22.12;28.37;102002.21;104101;1317;62262;-82
2022/03/13 10:35:01;;;;;;;;;;;;;;;22.12;28.22;101999.88;104091;1317;62151;-84
2022/03/13 10:37:43;;;;;;;;;;;;;;;22.12;28.30;101994.33;103634;1316;72699;-82
2022/03/13 10:40:18;;;;;;;;;;;;;;;22.10;28.27;101993.30;103756;1317;75675;-82
2022/03/13 10:42:44;;;;;;;;;;;;;;;22.11;28.28;101993.09;103942;1316;62132;-84
2022/03/13 10:45:38;;;;;;;;;;;;;;;22.11;28.18;101994.72;103930;1316;62246;-84
2022/03/13 10:48:28;;;;;;;;;;;;;;;22.11;28.25;101990.77;104445;1307;72704;-83
2022/03/13 10:50:57;;;;;;;;;;;;;;;22.12;28.17;101992.17;104514;1309;74592;-83
2022/03/13 10:53:27;;;;;;;;;;;;;;;22.11;28.36;101982.70;104501;1308;62128;-87
2022/03/13 10:56:12;;;;;;;;;;;;;;;;;;;;;
2022/03/13 10:58:39;;;;;;;;;;;;;;;22.11;28.19;101987.90;104633;1309;72689;-86
2022/03/13 11:01:17;;;;;;;;;;;;;;;22.12;28.32;101983.94;104319;1309;76699;-82
2022/03/13 11:04:16;;;;;;;;;;;;;;;22.10;28.40;101984.52;104451;1309;63708;-79
2022/03/13 11:06:46;;;;;;;;;;;;;;;22.10;28.18;101987.41;104173;1314;61958;-82
2022/03/13 11:09:21;;;;;;;;;;;;;;;22.10;28.35;101984.55;103962;1317;73866;-84
2022/03/13 11:11:50;;;;;;;;;;;;;;;22.10;28.46;101984.92;104110;1314;76565;-81
2022/03/13 11:14:20;;;;;;;;;;;;;;;22.09;28.36;101985.67;104126;1314;61856;-84
2022/03/13 11:16:49;;;;;;;;;;;;;;;22.08;28.28;101986.05;103845;1314;62088;-84
2022/03/13 11:19:18;;;;;;;;;;;;;;;22.08;28.32;101984.63;104197;1314;72848;-79
2022/03/13 11:21:48;;;;;;;;;;;;;;;22.08;28.19;101981.58;104118;1314;75428;-80
2022/03/13 11:24:17;;;;;;;;;;;;;;;22.08;28.47;101985.70;104093;1314;62014;-83
2022/03/13 11:27:13;;;;;;;;;;;;;;;22.08;28.49;101984.80;103834;1316;62685;-84
2022/03/13 11:29:59;;;;;;;;;;;;;;;22.08;28.36;101983.20;103985;1317;74004;-83
2022/03/13 11:32:50;;;;;;;;;;;;;;;22.09;28.36;101985.34;103889;1316;76585;-86
2022/03/13 11:35:22;;;;;;;;;;;;;;;22.08;28.32;101985.70;104219;1314;62083;-85
2022/03/13 11:38:14;;;;;;;;;;;;;;;22.09;28.39;101983.54;104209;1314;62085;-84
2022/03/13 11:40:50;;;;;;;;;;;;;;;22.08;28.52;101984.82;104096;1314;72990;-83
2022/03/13 11:43:22;;;;;;;;;;;;;;;22.09;28.35;101985.52;104282;1311;74935;-81
2022/03/13 11:46:07;;;;;;;;;;;;;;;22.09;28.41;101986.42;104523;1308;62132;-84
2022/03/13 11:48:37;;;;;;;;;;;;;;;22.09;28.22;101985.14;104454;1308;62092;-79
2022/03/13 11:51:28;;;;;;;;;;;;;;;22.09;28.40;101989.06;104456;1308;72623;-87
2022/03/13 11:53:53;;;;;;;;;;;;;;;22.09;28.34;101988.38;104518;1308;75645;-84
2022/03/13 11:56:26;;;;;;;;;;;;;;;22.09;28.57;101988.19;104444;1308;62040;-83
2022/03/13 11:59:19;;;;;;;;;;;;;;;22.09;28.39;101986.57;104440;1311;61974;-83
2022/03/13 12:01:56;;;;;;;;;;;;;;;22.09;28.46;101987.29;104477;1311;72188;-83
2022/03/13 12:04:33;;;;;;;;;;;;;;;22.09;28.53;101989.44;104508;1311;76391;-85
2022/03/13 12:07:00;;;;;;;;;;;;;;;22.09;28.52;101988.19;104501;1311;61924;-85
2022/03/13 12:09:31;;;;;;;;;;;;;;;22.09;28.41;101986.42;104381;1311;62116;-86
2022/03/13 12:12:14;;;;;;;;;;;;;;;22.08;28.44;101983.91;104470;1311;72687;-84
2022/03/13 12:15:05;;;;;;;;;;;;;;;22.08;28.46;101987.88;104365;1311;75500;-83
2022/03/13 12:17:47;;;;;;;;;;;;;;;22.08;28.43;101985.73;104463;1308;61993;-84
2022/03/13 12:20:38;;;;;;;;;;;;;;;22.08;28.33;101982.16;104433;1308;62620;-83
2022/03/13 12:23:10;;;;;;;;;;;;;;;22.08;28.42;101983.58;104427;1308;73789;-82
2022/03/13 12:25:36;;;;;;;;;;;;;;;22.08;28.28;101986.27;104467;1308;76716;-85
2022/03/13 12:28:29;;;;;;;;;;;;;;;22.08;28.44;101981.44;104460;1308;62113;-83
2022/03/13 12:31:06;;;;;;;;;;;;;;;22.08;28.38;101982.15;103999;1317;61968;-80
2022/03/13 12:33:33;;;;;;;;;;;;;;;22.08;28.61;101981.63;104044;1316;73925;-82
2022/03/13 12:36:09;;;;;;;;;;;;;;;22.08;28.38;101988.61;103935;1317;74549;-83
2022/03/13 12:38:37;;;;;;;;;;;;;;;22.07;28.53;101992.55;103840;1316;62065;-85
2022/03/13 12:41:05;;;;;;;;;;;;;;;22.07;28.51;101991.66;103973;1317;62101;-87
2022/03/13 12:43:49;;;;;;;;;;;;;;;22.07;28.58;101996.89;103957;1317;73790;-85
2022/03/13 12:46:17;;;;;;;;;;;;;;;22.08;28.66;101999.91;104066;1316;76519;-84
2022/03/13 12:48:55;;;;;;;;;;;;;;;22.07;28.57;102000.81;103920;1316;62072;-82
2022/03/13 12:51:41;;;;;;;;;;;;;;;22.08;28.39;102009.05;103765;1317;63087;-84
2022/03/13 12:54:20;;;;;;;;;;;;;;;22.07;28.59;102009.96;103966;1317;73748;-82
2022/03/13 12:56:47;;;;;;;;;;;;;;;22.07;28.48;102007.27;104104;1317;75831;-81
2022/03/13 12:59:41;;;;;;;;;;;;;;;22.07;28.56;102006.94;103829;1317;62188;-89
2022/03/13 13:02:08;;;;;;;;;;;;;;;22.07;28.37;102005.88;103667;1317;62118;-82
2022/03/13 13:04:34;;;;;;;;;;;;;;;22.07;28.60;102007.63;103784;1317;72727;-81
2022/03/13 13:07:04;;;;;;;;;;;;;;;22.08;28.56;102011.90;103835;1316;62762;-82
2022/03/13 13:09:30;;;;;;;;;;;;;;;22.08;28.66;102010.45;104302;1308;61942;-81
2022/03/13 13:11:56;;;;;;;;;;;;;;;22.09;28.61;102009.73;104418;1309;62067;-85
2022/03/13 13:14:29;;;;;;;;;;;;;;;22.09;28.69;102008.64;104417;1308;72783;-82
2022/03/13 13:17:02;;;;;;;;;;;;;;;22.09;28.68;102011.67;104440;1309;75595;-82
2022/03/13 13:19:28;;;;;;;;;;;;;;;22.09;28.60;102009.36;104500;1308;61890;-83
2022/03/13 13:21:56;;;;;;;;;;;;;;;22.09;28.42;102011.85;104329;1309;62073;-81
2022/03/13 13:24:22;;;;;;;;;;;;;;;22.08;28.62;102009.38;104227;1311;73909;-81
2022/03/13 13:26:50;;;;;;;;;;;;;;;22.09;28.57;102009.16;104352;1309;62108;-82
2022/03/13 13:29:34;;;;;;;;;;;;;;;22.09;28.63;102009.36;104373;1311;62198;-81
2022/03/13 13:32:18;;;;;;;;;;;;;;;22.09;28.68;102011.32;104437;1308;62137;-82
2022/03/13 13:35:24;;;;;;;;;;;;;;;22.09;28.58;102014.17;104389;1308;74031;-79
2022/03/13 13:37:57;;;;;;;;;;;;;;;22.09;28.40;102015.43;104487;1308;74592;-86
2022/03/13 13:40:26;;;;;;;;;;;;;;;22.09;28.60;102015.41;104521;1308;61957;-84
2022/03/13 13:43:07;;;;;;;;;;;;;;;22.10;28.38;102020.94;104382;1311;61906;-83
2022/03/13 13:45:39;;;;;;;;;;;;;;;22.11;28.43;102024.84;104374;1311;73010;-82